Terminal Aerodrome Forecast
Issued by NWS

Home | Current Version | Previous Version | Text Only | Print | Product List | Glossary On
Versions: 1 2 3 4 5 6 7 8 9 10 11 12 13 14
211
FTUS46 KPDT 041120
TAFRDM
TAF
KRDM 041120Z 0412/0512 VRB05KT P6SM SCT080 BKN100
     FM042000 31010KT P6SM -SHRA VCTS BKN050CB OVC080
     FM050200 VRB04KT P6SM -SHRA OVC050=

USA.gov is the U.S. government's official web portal to all federal, state and local government web resources and services.